createdAt,value
2018-08-30T00:00:39.816Z,43.80
2018-08-30T00:01:39.800Z,49.20
2018-08-30T00:02:39.771Z,43.90
2018-08-30T00:03:39.767Z,42.40
2018-08-30T00:04:39.760Z,43.30
2018-08-30T00:05:41.716Z,41.70
2018-08-30T00:07:30.481Z,41.60
2018-08-30T00:08:29.138Z,39.80
2018-08-30T00:09:29.222Z,39.70
2018-08-30T00:10:29.155Z,38.10
2018-08-30T00:11:29.647Z,41.70
2018-08-30T00:12:29.066Z,46.80
2018-08-30T00:13:29.046Z,42.20
2018-08-30T00:15:14.837Z,42.50
2018-08-30T00:16:14.792Z,43.60
2018-08-30T00:17:14.714Z,41.00
2018-08-30T00:18:14.723Z,43.10
2018-08-30T00:19:14.679Z,46.40
2018-08-30T00:20:14.652Z,44.90
2018-08-30T00:21:14.851Z,41.20
2018-08-30T00:22:14.581Z,43.80
2018-08-30T00:23:14.535Z,46.70
2018-08-30T00:25:54.023Z,44.60
2018-08-30T00:26:54.529Z,36.90
2018-08-30T00:27:53.918Z,33.30
2018-08-30T00:28:53.899Z,30.80
2018-08-30T00:29:54.023Z,30.60
2018-08-30T00:30:53.826Z,25.70
2018-08-30T00:31:53.762Z,23.30
2018-08-30T00:32:53.769Z,18.60
2018-08-30T00:33:53.715Z,22.60
2018-08-30T00:34:53.695Z,23.00
2018-08-30T00:35:53.665Z,24.00
2018-08-30T00:36:53.656Z,26.40
2018-08-30T00:37:53.621Z,25.20
2018-08-30T00:38:53.593Z,16.10
2018-08-30T00:40:46.232Z,15.50
2018-08-30T00:41:46.004Z,13.10
2018-08-30T00:42:44.951Z,12.30
2018-08-30T00:43:46.214Z,13.10
2018-08-30T00:44:44.831Z,15.50
2018-08-30T00:45:44.827Z,13.40
2018-08-30T00:46:44.796Z,11.80
2018-08-30T00:47:45.778Z,12.40
2018-08-30T00:49:44.135Z,11.80
2018-08-30T00:50:40.706Z,9.00
2018-08-30T00:51:40.635Z,10.00
2018-08-30T00:52:40.569Z,11.60
2018-08-30T00:53:40.552Z,9.10
2018-08-30T00:54:40.505Z,11.20
2018-08-30T00:55:40.486Z,12.10
2018-08-30T00:56:41.455Z,12.50
2018-08-30T00:57:40.473Z,10.30
2018-08-30T00:58:45.909Z,12.10
2018-08-30T00:59:40.467Z,12.40
2018-08-30T01:00:40.424Z,14.10
2018-08-30T01:01:45.699Z,13.20
2018-08-30T01:02:44.882Z,12.40
2018-08-30T01:03:40.298Z,13.60
2018-08-30T01:04:41.215Z,14.30
2018-08-30T01:05:40.178Z,14.80
2018-08-30T01:07:30.403Z,18.30
2018-08-30T01:09:47.907Z,16.70
2018-08-30T01:10:46.603Z,14.90
2018-08-30T01:11:46.555Z,16.80
2018-08-30T01:12:48.572Z,18.50
2018-08-30T01:13:47.481Z,18.80
2018-08-30T01:14:47.485Z,18.20
2018-08-30T01:15:46.404Z,18.80
2018-08-30T01:16:48.420Z,18.00
2018-08-30T01:17:46.372Z,21.70
2018-08-30T01:18:47.377Z,19.60
2018-08-30T01:19:46.322Z,19.10
2018-08-30T01:20:46.304Z,19.70
2018-08-30T01:21:46.266Z,21.50
2018-08-30T01:22:46.250Z,21.30
2018-08-30T01:23:46.208Z,25.80
2018-08-30T01:24:47.194Z,20.60
2018-08-30T01:25:46.168Z,20.10
2018-08-30T01:26:46.158Z,21.30
2018-08-30T01:28:32.393Z,25.00
2018-08-30T01:29:33.363Z,20.90
2018-08-30T01:31:31.013Z,21.00
2018-08-30T01:32:28.859Z,22.70
2018-08-30T01:33:29.780Z,27.80
2018-08-30T01:34:27.722Z,28.60
2018-08-30T01:35:27.730Z,26.00
2018-08-30T01:36:29.690Z,27.70
2018-08-30T01:37:27.667Z,25.20
2018-08-30T01:38:29.658Z,31.00
2018-08-30T01:39:27.603Z,26.50
2018-08-30T01:40:27.601Z,28.50
2018-08-30T01:41:27.548Z,29.80
2018-08-30T01:42:27.547Z,32.60
2018-08-30T01:43:27.498Z,28.90
2018-08-30T01:44:28.502Z,29.40
2018-08-30T01:46:31.902Z,35.50
2018-08-30T01:47:31.821Z,34.40
2018-08-30T01:48:31.776Z,28.20
2018-08-30T01:49:31.730Z,34.10
2018-08-30T01:50:31.682Z,34.40
2018-08-30T01:51:32.707Z,31.70
2018-08-30T01:52:31.635Z,34.60
2018-08-30T01:53:31.640Z,41.80
2018-08-30T01:54:31.620Z,32.10
2018-08-30T01:55:32.607Z,33.50
2018-08-30T01:56:31.610Z,32.20
2018-08-30T01:57:31.494Z,33.70
2018-08-30T01:58:31.481Z,32.80
2018-08-30T01:59:31.466Z,36.60
2018-08-30T02:00:31.419Z,33.90
2018-08-30T02:02:37.155Z,37.60
2018-08-30T02:03:36.899Z,31.30
2018-08-30T02:04:36.883Z,34.70
2018-08-30T02:05:36.867Z,38.30
2018-08-30T02:06:38.862Z,34.90
2018-08-30T02:07:36.830Z,36.40
2018-08-30T02:08:36.805Z,37.90
2018-08-30T02:09:36.756Z,38.10
2018-08-30T02:10:36.773Z,39.20
2018-08-30T02:11:36.714Z,35.50
2018-08-30T02:12:37.688Z,37.90
2018-08-30T02:13:36.669Z,43.30
2018-08-30T02:15:57.019Z,45.20
2018-08-30T02:16:57.066Z,44.00
2018-08-30T02:17:56.947Z,38.30
2018-08-30T02:18:56.929Z,41.40
2018-08-30T02:19:56.879Z,36.80
2018-08-30T02:20:57.871Z,39.80
2018-08-30T02:21:56.848Z,40.70
2018-08-30T02:22:56.792Z,39.20
2018-08-30T02:23:56.758Z,41.70
2018-08-30T02:24:57.769Z,39.70
2018-08-30T02:25:56.721Z,42.40
2018-08-30T02:26:56.691Z,45.40
2018-08-30T02:27:56.666Z,39.10
2018-08-30T02:28:56.661Z,40.60
2018-08-30T02:29:56.634Z,39.80
2018-08-30T02:30:56.597Z,40.20
2018-08-30T02:31:56.595Z,40.60
2018-08-30T02:32:56.544Z,42.80
2018-08-30T02:33:57.529Z,40.00
2018-08-30T02:34:56.511Z,42.70
2018-08-30T02:37:06.695Z,47.40
2018-08-30T02:38:06.732Z,41.50
2018-08-30T02:40:01.705Z,45.30
2018-08-30T02:41:00.594Z,40.90
2018-08-30T02:42:01.574Z,40.10
2018-08-30T02:43:00.562Z,39.40
2018-08-30T02:44:00.515Z,41.90
2018-08-30T02:45:00.518Z,38.20
2018-08-30T02:46:00.500Z,38.30
2018-08-30T02:47:00.463Z,42.20
2018-08-30T02:48:06.020Z,39.20
2018-08-30T02:49:03.185Z,38.30
2018-08-30T02:50:03.105Z,42.30
2018-08-30T02:51:03.042Z,41.90
2018-08-30T02:52:03.012Z,40.80
2018-08-30T02:53:03.018Z,38.90
2018-08-30T02:54:04.983Z,42.30
2018-08-30T02:55:02.943Z,41.80
2018-08-30T02:56:02.966Z,41.00
2018-08-30T02:57:02.880Z,45.20
2018-08-30T02:58:02.865Z,36.70
2018-08-30T02:59:02.838Z,37.20
2018-08-30T03:00:03.816Z,38.00
2018-08-30T03:01:02.787Z,40.50
2018-08-30T03:02:02.768Z,41.60
2018-08-30T03:03:58.990Z,44.00
2018-08-30T03:04:58.933Z,43.50
2018-08-30T03:05:58.920Z,44.80
2018-08-30T03:06:59.919Z,40.00
2018-08-30T03:07:58.884Z,39.70
2018-08-30T03:08:59.846Z,39.90
2018-08-30T03:09:58.805Z,43.10
2018-08-30T03:10:58.773Z,45.70
2018-08-30T03:11:58.741Z,41.00
2018-08-30T03:12:59.775Z,41.60
2018-08-30T03:13:58.695Z,41.70
2018-08-30T03:15:00.707Z,42.60
2018-08-30T03:15:58.646Z,44.50
2018-08-30T03:17:00.640Z,40.80
2018-08-30T03:17:58.619Z,47.40
2018-08-30T03:18:58.610Z,40.40
2018-08-30T03:19:58.560Z,41.40
2018-08-30T03:20:58.539Z,41.60
2018-08-30T03:21:58.526Z,42.30
2018-08-30T03:22:58.489Z,45.20
2018-08-30T03:23:58.452Z,41.50
2018-08-30T03:24:58.438Z,43.50
2018-08-30T03:25:58.408Z,42.30
2018-08-30T03:27:00.398Z,43.30
2018-08-30T03:27:58.377Z,47.90
2018-08-30T03:29:44.643Z,46.80
2018-08-30T03:30:44.600Z,43.70
2018-08-30T03:31:44.548Z,43.10
2018-08-30T03:32:44.518Z,42.90
2018-08-30T03:33:44.483Z,42.50
2018-08-30T03:34:44.486Z,39.60
2018-08-30T03:35:44.422Z,40.00
2018-08-30T03:36:44.400Z,43.10
2018-08-30T03:37:44.362Z,43.20
2018-08-30T03:38:44.353Z,41.30
2018-08-30T03:40:40.066Z,49.90
2018-08-30T03:41:39.956Z,45.10
2018-08-30T03:42:39.924Z,47.90
2018-08-30T03:43:39.969Z,40.00
2018-08-30T03:44:39.856Z,42.80
2018-08-30T03:45:39.864Z,46.20
2018-08-30T03:46:39.790Z,46.00
2018-08-30T03:47:39.798Z,45.20
2018-08-30T03:48:39.757Z,42.60
2018-08-30T03:49:41.731Z,41.90
2018-08-30T03:50:39.700Z,46.50
2018-08-30T03:51:29.687Z,40.70
2018-08-30T03:52:29.615Z,40.70
2018-08-30T03:53:29.555Z,41.70
2018-08-30T03:54:29.534Z,40.80
2018-08-30T03:55:29.505Z,40.40
2018-08-30T03:56:29.487Z,42.40
2018-08-30T03:57:29.473Z,40.00
2018-08-30T03:58:30.448Z,41.40
2018-08-30T03:59:29.392Z,43.10
2018-08-30T04:00:29.395Z,42.30
2018-08-30T04:01:29.366Z,39.20
2018-08-30T04:02:29.349Z,49.30
2018-08-30T04:03:29.314Z,39.50
2018-08-30T04:04:30.304Z,41.10
2018-08-30T04:05:29.253Z,43.80
2018-08-30T04:06:30.260Z,46.70
2018-08-30T04:07:29.201Z,42.40
2018-08-30T04:08:29.174Z,39.40
2018-08-30T04:10:23.712Z,43.30
2018-08-30T04:11:24.658Z,43.40
2018-08-30T04:12:23.581Z,46.30
2018-08-30T04:13:25.645Z,38.90
2018-08-30T04:14:23.550Z,40.20
2018-08-30T04:15:24.529Z,38.10
2018-08-30T04:16:23.488Z,37.80
2018-08-30T04:17:23.467Z,42.90
2018-08-30T04:18:23.443Z,44.20
2018-08-30T04:19:24.458Z,43.20
2018-08-30T04:20:23.389Z,41.00
2018-08-30T04:21:25.379Z,44.70
2018-08-30T04:22:23.349Z,43.10
2018-08-30T04:23:23.326Z,45.90
2018-08-30T04:24:23.309Z,42.90
2018-08-30T04:25:24.302Z,45.20
2018-08-30T04:26:23.250Z,48.50
2018-08-30T04:27:23.246Z,46.50
2018-08-30T04:28:23.238Z,48.50
2018-08-30T04:29:23.294Z,44.90
2018-08-30T04:30:23.174Z,50.30
2018-08-30T04:31:23.222Z,52.10
2018-08-30T04:32:23.117Z,50.80
2018-08-30T04:33:28.010Z,51.50
2018-08-30T04:34:23.067Z,47.40
2018-08-30T04:35:29.949Z,46.00
2018-08-30T04:36:23.006Z,46.20
2018-08-30T04:37:23.003Z,47.10
2018-08-30T04:38:22.950Z,50.10
2018-08-30T04:39:24.949Z,49.70
2018-08-30T04:40:22.907Z,51.30
2018-08-30T04:41:22.888Z,48.00
2018-08-30T04:42:22.960Z,52.60
2018-08-30T04:43:22.867Z,54.90
2018-08-30T04:45:14.230Z,51.70
2018-08-30T04:46:16.180Z,49.20
2018-08-30T04:47:14.127Z,49.00
2018-08-30T04:48:15.102Z,51.00
2018-08-30T04:49:14.081Z,50.00
2018-08-30T04:50:14.217Z,55.30
2018-08-30T04:51:14.088Z,48.80
2018-08-30T04:52:18.916Z,53.30
2018-08-30T04:53:13.958Z,55.20
2018-08-30T04:54:13.938Z,50.00
2018-08-30T04:55:13.915Z,47.70
2018-08-30T04:56:14.912Z,52.70
2018-08-30T04:57:13.878Z,48.00
2018-08-30T04:59:02.263Z,52.80
2018-08-30T05:00:08.037Z,52.90
2018-08-30T05:01:02.165Z,54.90
2018-08-30T05:02:04.182Z,53.90
2018-08-30T05:03:02.284Z,51.40
2018-08-30T05:04:04.132Z,46.70
2018-08-30T05:05:02.046Z,50.00
2018-08-30T05:06:02.041Z,47.50
2018-08-30T05:07:02.023Z,47.90
2018-08-30T05:08:02.095Z,49.30
2018-08-30T05:09:01.958Z,54.00
2018-08-30T05:10:02.055Z,53.40
2018-08-30T05:11:01.903Z,52.90
2018-08-30T05:12:01.886Z,46.10
2018-08-30T05:13:01.878Z,49.80
2018-08-30T05:14:01.830Z,57.00
2018-08-30T05:15:01.822Z,54.10
2018-08-30T05:16:53.231Z,46.60
2018-08-30T05:17:53.213Z,44.00
2018-08-30T05:18:53.179Z,52.50
2018-08-30T05:19:53.172Z,43.40
2018-08-30T05:20:53.129Z,45.50
2018-08-30T05:21:53.108Z,49.70
2018-08-30T05:22:53.048Z,47.60
2018-08-30T05:23:53.047Z,50.80
2018-08-30T05:24:53.010Z,42.00
2018-08-30T05:25:54.052Z,44.40
2018-08-30T05:26:52.975Z,51.00
2018-08-30T05:27:54.937Z,44.30
2018-08-30T05:28:52.905Z,46.00
2018-08-30T05:29:52.978Z,43.40
2018-08-30T05:30:52.849Z,43.90
2018-08-30T05:31:54.864Z,44.80
2018-08-30T05:32:52.813Z,45.40
2018-08-30T05:33:53.781Z,46.50
2018-08-30T05:34:52.806Z,44.80
2018-08-30T05:35:52.846Z,40.70
2018-08-30T05:36:52.761Z,39.40
2018-08-30T05:37:52.702Z,43.90
2018-08-30T05:38:52.672Z,37.80
2018-08-30T05:39:52.635Z,39.50
2018-08-30T05:40:52.606Z,36.40
2018-08-30T05:41:52.583Z,33.80
2018-08-30T05:42:52.685Z,37.30
2018-08-30T05:43:52.556Z,36.70
2018-08-30T05:44:52.506Z,36.40
2018-08-30T05:45:53.498Z,40.90
2018-08-30T05:47:39.871Z,43.40
2018-08-30T05:48:45.615Z,39.00
2018-08-30T05:49:39.796Z,40.90
2018-08-30T05:50:39.786Z,39.50
2018-08-30T05:51:39.732Z,37.60
2018-08-30T05:52:40.721Z,30.80
2018-08-30T05:53:39.700Z,36.40
2018-08-30T05:54:39.683Z,34.80
2018-08-30T05:55:39.631Z,33.30
2018-08-30T05:56:39.642Z,38.50
2018-08-30T05:57:39.592Z,29.70
2018-08-30T05:58:39.570Z,27.80
2018-08-30T05:59:39.558Z,28.20
2018-08-30T06:00:39.538Z,29.30
2018-08-30T06:01:39.504Z,37.70
2018-08-30T06:02:39.472Z,29.20
2018-08-30T06:03:39.448Z,26.60
2018-08-30T06:04:39.429Z,29.70
2018-08-30T06:05:39.409Z,26.10
2018-08-30T06:06:39.380Z,28.40
2018-08-30T06:07:39.344Z,29.50
2018-08-30T06:08:39.324Z,26.40
2018-08-30T06:09:39.300Z,29.70
2018-08-30T06:10:39.277Z,26.50
2018-08-30T06:11:39.322Z,27.90
2018-08-30T06:12:39.235Z,23.30
2018-08-30T06:13:40.203Z,29.80
2018-08-30T06:14:39.201Z,26.00
2018-08-30T06:15:40.159Z,26.10
2018-08-30T06:16:39.133Z,27.70
2018-08-30T06:17:39.110Z,28.10
2018-08-30T06:18:39.083Z,26.80
2018-08-30T06:19:40.066Z,25.00
2018-08-30T06:20:39.029Z,27.70
2018-08-30T06:21:39.005Z,28.10
2018-08-30T06:22:38.981Z,22.20
2018-08-30T06:23:38.973Z,21.70
2018-08-30T06:24:38.935Z,25.50
2018-08-30T06:25:38.923Z,24.70
2018-08-30T06:27:35.725Z,26.60
2018-08-30T06:28:35.668Z,22.40
2018-08-30T06:29:35.961Z,21.60
2018-08-30T06:30:35.606Z,21.70
2018-08-30T06:31:35.580Z,21.80
2018-08-30T06:32:35.672Z,22.00
2018-08-30T06:33:35.541Z,21.10
2018-08-30T06:34:35.599Z,21.70
2018-08-30T06:35:35.511Z,21.90
2018-08-30T06:36:35.577Z,19.60
2018-08-30T06:37:35.456Z,20.50
2018-08-30T06:38:35.505Z,18.60
2018-08-30T06:39:35.398Z,20.10
2018-08-30T06:40:35.372Z,17.40
2018-08-30T06:41:36.435Z,19.70
2018-08-30T06:42:35.319Z,19.20
2018-08-30T06:43:35.291Z,23.90
2018-08-30T06:44:35.264Z,21.30
2018-08-30T06:45:35.334Z,15.30
2018-08-30T06:46:35.220Z,15.30
2018-08-30T06:47:35.203Z,22.00
2018-08-30T06:48:35.271Z,16.60
2018-08-30T06:49:35.144Z,18.40
2018-08-30T06:50:35.164Z,19.80
2018-08-30T06:51:35.090Z,20.00
2018-08-30T06:52:35.175Z,16.60
2018-08-30T06:53:35.046Z,14.80
2018-08-30T06:54:36.114Z,18.60
2018-08-30T06:55:35.014Z,17.10
2018-08-30T06:56:34.997Z,18.50
2018-08-30T06:57:34.953Z,15.10
2018-08-30T06:58:35.029Z,18.20
2018-08-30T06:59:35.017Z,13.80
2018-08-30T07:00:34.901Z,16.30
2018-08-30T07:01:34.859Z,14.80
2018-08-30T07:02:34.932Z,17.30
2018-08-30T07:03:34.798Z,14.90
2018-08-30T07:04:34.861Z,16.40
2018-08-30T07:05:34.774Z,15.10
2018-08-30T07:06:34.728Z,17.40
2018-08-30T07:07:34.713Z,15.30
2018-08-30T07:08:34.694Z,16.00
2018-08-30T07:09:34.659Z,15.30
2018-08-30T07:10:34.626Z,15.40
2018-08-30T07:11:34.617Z,18.30
2018-08-30T07:12:34.581Z,20.20
2018-08-30T07:13:34.596Z,17.80
2018-08-30T07:14:34.544Z,14.50
2018-08-30T07:15:34.511Z,17.60
2018-08-30T07:16:34.486Z,18.50
2018-08-30T07:17:35.558Z,11.90
2018-08-30T07:18:34.438Z,10.30
2018-08-30T07:19:34.416Z,12.00
2018-08-30T07:21:25.437Z,19.10
2018-08-30T07:22:25.371Z,12.70
2018-08-30T07:23:25.349Z,15.50
2018-08-30T07:24:25.375Z,17.70
2018-08-30T07:25:25.362Z,13.70
2018-08-30T07:26:25.285Z,12.90
2018-08-30T07:27:25.283Z,12.30
2018-08-30T07:28:25.269Z,11.10
2018-08-30T07:29:25.225Z,15.40
2018-08-30T07:30:25.177Z,8.50
2018-08-30T07:31:25.161Z,9.70
2018-08-30T07:32:25.124Z,11.40
2018-08-30T07:33:25.256Z,11.40
2018-08-30T07:34:25.099Z,11.60
2018-08-30T07:35:25.128Z,12.90
2018-08-30T07:36:25.045Z,9.60
2018-08-30T07:37:25.008Z,11.30
2018-08-30T07:38:24.985Z,13.00
2018-08-30T07:39:25.979Z,9.40
2018-08-30T07:40:24.936Z,15.40
2018-08-30T07:41:24.909Z,9.70
2018-08-30T07:42:24.970Z,12.40
2018-08-30T07:43:24.882Z,11.80
2018-08-30T07:44:24.913Z,8.90
2018-08-30T07:45:24.804Z,12.00
2018-08-30T07:46:24.894Z,12.00
2018-08-30T07:47:24.752Z,12.00
2018-08-30T07:48:24.806Z,6.80
2018-08-30T07:49:24.733Z,9.20
2018-08-30T07:50:24.725Z,8.80
2018-08-30T07:51:24.653Z,9.60
2018-08-30T07:52:24.734Z,8.30
2018-08-30T07:53:24.623Z,10.20
2018-08-30T07:54:24.710Z,10.80
2018-08-30T07:55:24.563Z,12.00
2018-08-30T07:56:24.543Z,11.80
2018-08-30T07:57:24.530Z,13.10
2018-08-30T07:58:24.487Z,13.20
2018-08-30T07:59:24.483Z,10.60
2018-08-30T08:00:24.445Z,11.80
2018-08-30T08:01:24.491Z,11.40
2018-08-30T08:02:24.383Z,10.10
2018-08-30T08:03:24.369Z,12.50
2018-08-30T08:04:24.396Z,16.00
2018-08-30T08:05:24.318Z,10.10
2018-08-30T08:06:24.293Z,11.90
2018-08-30T08:07:24.260Z,9.40
2018-08-30T08:09:10.610Z,17.00
2018-08-30T08:10:10.558Z,11.70
2018-08-30T08:11:10.526Z,10.60
2018-08-30T08:12:10.506Z,13.00
2018-08-30T08:13:10.478Z,11.00
2018-08-30T08:14:10.465Z,11.50
2018-08-30T08:15:10.448Z,11.40
2018-08-30T08:16:10.395Z,10.00
2018-08-30T08:17:10.460Z,10.60
2018-08-30T08:18:10.349Z,8.70
2018-08-30T08:19:10.470Z,10.70
2018-08-30T08:20:10.355Z,9.00
2018-08-30T08:21:10.384Z,9.50
2018-08-30T08:22:10.278Z,10.00
2018-08-30T08:23:10.235Z,10.70
2018-08-30T08:24:10.210Z,7.00
2018-08-30T08:25:10.226Z,12.20
2018-08-30T08:26:10.155Z,9.50
2018-08-30T08:27:10.124Z,9.60
2018-08-30T08:28:10.108Z,11.00
2018-08-30T08:29:10.090Z,9.40
2018-08-30T08:30:10.045Z,8.40
2018-08-30T08:31:10.036Z,9.80
2018-08-30T08:32:10.034Z,8.90
2018-08-30T08:33:09.975Z,8.90
2018-08-30T08:34:09.952Z,13.00
2018-08-30T08:35:09.976Z,10.60
2018-08-30T08:36:09.902Z,8.60
2018-08-30T08:37:09.889Z,10.50
2018-08-30T08:38:09.850Z,10.20
2018-08-30T08:39:09.836Z,14.00
2018-08-30T08:40:09.809Z,6.10
2018-08-30T08:41:09.787Z,7.90
2018-08-30T08:42:09.766Z,8.10
2018-08-30T08:43:09.723Z,12.40
2018-08-30T08:44:14.442Z,9.40
2018-08-30T08:45:09.676Z,12.80
2018-08-30T08:46:09.648Z,13.90
2018-08-30T08:47:09.623Z,12.20
2018-08-30T08:48:10.690Z,9.00
2018-08-30T08:49:09.569Z,13.70
2018-08-30T08:50:09.562Z,6.80
2018-08-30T08:51:09.547Z,8.40
2018-08-30T08:52:11.540Z,7.10
2018-08-30T08:53:09.478Z,8.70
2018-08-30T08:54:09.453Z,7.40
2018-08-30T08:55:09.514Z,9.50
2018-08-30T08:56:09.413Z,8.00
2018-08-30T08:57:09.408Z,8.40
2018-08-30T08:58:09.362Z,10.50
2018-08-30T08:59:09.474Z,7.80
2018-08-30T09:00:09.316Z,9.60
2018-08-30T09:01:09.281Z,7.20
2018-08-30T09:02:09.254Z,9.50
2018-08-30T09:03:09.234Z,7.40
2018-08-30T09:04:09.222Z,10.20
2018-08-30T09:05:09.262Z,6.30
2018-08-30T09:06:09.162Z,6.90
2018-08-30T09:07:09.159Z,7.40
2018-08-30T09:08:10.203Z,9.00
2018-08-30T09:09:09.081Z,7.10
2018-08-30T09:10:09.061Z,6.60
2018-08-30T09:11:09.093Z,6.60
2018-08-30T09:12:09.030Z,10.00
2018-08-30T09:13:08.985Z,7.80
2018-08-30T09:14:09.016Z,5.80
2018-08-30T09:15:08.937Z,7.90
2018-08-30T09:16:09.024Z,7.00
2018-08-30T09:17:08.898Z,8.50
2018-08-30T09:18:57.954Z,10.70
2018-08-30T09:19:57.932Z,6.50
2018-08-30T09:20:57.970Z,6.30
2018-08-30T09:21:57.879Z,7.60
2018-08-30T09:22:57.985Z,8.10
2018-08-30T09:23:57.832Z,6.60
2018-08-30T09:24:57.824Z,8.00
2018-08-30T09:25:57.782Z,5.60
2018-08-30T09:26:57.924Z,6.80
2018-08-30T09:27:57.737Z,7.40
2018-08-30T09:28:58.783Z,8.70
2018-08-30T09:29:57.681Z,9.50
2018-08-30T09:30:57.694Z,9.10
2018-08-30T09:31:57.680Z,7.20
2018-08-30T09:32:57.616Z,5.50
2018-08-30T09:33:57.613Z,7.10
2018-08-30T09:34:57.624Z,7.60
2018-08-30T09:35:57.547Z,4.90
2018-08-30T09:36:57.534Z,8.30
2018-08-30T09:37:57.514Z,9.00
2018-08-30T09:38:57.483Z,6.20
2018-08-30T09:39:58.542Z,6.10
2018-08-30T09:40:57.414Z,11.70
2018-08-30T09:41:57.433Z,5.80
2018-08-30T09:42:57.372Z,6.50
2018-08-30T09:43:57.341Z,5.60
2018-08-30T09:44:57.324Z,5.80
2018-08-30T09:45:59.403Z,7.00
2018-08-30T09:46:57.259Z,8.10
2018-08-30T09:47:57.269Z,7.80
2018-08-30T09:48:57.226Z,5.10
2018-08-30T09:49:57.202Z,5.30
2018-08-30T09:50:57.186Z,9.40
2018-08-30T09:51:57.148Z,7.00
2018-08-30T09:52:57.120Z,7.00
2018-08-30T09:53:57.092Z,10.00
2018-08-30T09:54:57.068Z,6.70
2018-08-30T09:55:57.053Z,6.70
2018-08-30T09:56:57.317Z,5.00
2018-08-30T09:57:56.999Z,8.90
2018-08-30T09:58:56.970Z,8.60
2018-08-30T09:59:57.156Z,5.90
2018-08-30T10:00:56.934Z,5.60
2018-08-30T10:01:56.925Z,9.40
2018-08-30T10:02:56.880Z,7.90
2018-08-30T10:03:56.845Z,5.90
2018-08-30T10:04:56.892Z,9.20
2018-08-30T10:05:56.800Z,6.70
2018-08-30T10:06:56.774Z,8.00
2018-08-30T10:07:56.894Z,7.60
2018-08-30T10:08:56.748Z,9.10
2018-08-30T10:09:57.931Z,7.70
2018-08-30T10:10:56.671Z,8.00
2018-08-30T10:11:57.838Z,8.90
2018-08-30T10:12:56.629Z,5.30
2018-08-30T10:13:56.641Z,7.10
2018-08-30T10:14:56.573Z,10.50
2018-08-30T10:15:56.578Z,8.80
2018-08-30T10:16:56.533Z,10.40
2018-08-30T10:17:56.550Z,3.80
2018-08-30T10:18:56.496Z,7.80
2018-08-30T10:19:56.664Z,6.80
2018-08-30T10:20:56.430Z,8.50
2018-08-30T10:21:56.429Z,4.90
2018-08-30T10:22:56.493Z,5.70
2018-08-30T10:23:56.373Z,9.70
2018-08-30T10:24:56.344Z,7.10
2018-08-30T10:25:56.320Z,3.80
2018-08-30T10:26:57.434Z,6.50
2018-08-30T10:27:56.276Z,6.60
2018-08-30T10:28:56.329Z,5.10
2018-08-30T10:29:56.215Z,8.40
2018-08-30T10:30:56.230Z,6.10
2018-08-30T10:31:56.196Z,6.50
2018-08-30T10:32:57.268Z,6.60
2018-08-30T10:33:56.147Z,6.60
2018-08-30T10:34:56.092Z,5.50
2018-08-30T10:35:56.167Z,5.40
2018-08-30T10:36:56.047Z,7.30
2018-08-30T10:37:56.023Z,7.60
2018-08-30T10:38:55.999Z,5.10
2018-08-30T10:39:55.965Z,8.90
2018-08-30T10:40:57.025Z,6.10
2018-08-30T10:41:55.915Z,5.80
2018-08-30T10:42:56.969Z,5.90
2018-08-30T10:43:55.874Z,7.30
2018-08-30T10:44:57.000Z,6.30
2018-08-30T10:45:55.842Z,5.90
2018-08-30T10:46:55.803Z,5.60
2018-08-30T10:47:55.774Z,6.10
2018-08-30T10:48:55.792Z,6.70
2018-08-30T10:49:55.812Z,6.10
2018-08-30T10:50:56.807Z,6.00
2018-08-30T10:51:55.677Z,7.00
2018-08-30T10:52:55.777Z,5.80
2018-08-30T10:53:55.638Z,5.20
2018-08-30T10:54:56.708Z,6.90
2018-08-30T10:55:55.610Z,5.00
2018-08-30T10:56:55.702Z,5.80
2018-08-30T10:57:55.547Z,5.40
2018-08-30T10:58:55.618Z,5.90
2018-08-30T10:59:55.488Z,7.80
2018-08-30T11:00:55.484Z,6.10
2018-08-30T11:01:55.452Z,6.70
2018-08-30T11:02:55.416Z,5.40
2018-08-30T11:03:55.448Z,5.00
2018-08-30T11:04:55.449Z,8.50
2018-08-30T11:05:55.384Z,3.60
2018-08-30T11:06:55.389Z,7.70
2018-08-30T11:07:55.337Z,4.30
2018-08-30T11:08:56.299Z,4.80
2018-08-30T11:09:55.258Z,6.60
2018-08-30T11:10:55.282Z,4.70
2018-08-30T11:11:55.200Z,3.60
2018-08-30T11:12:56.337Z,9.00
2018-08-30T11:13:55.158Z,5.20
2018-08-30T11:14:56.250Z,5.00
2018-08-30T11:15:55.107Z,5.20
2018-08-30T11:16:55.118Z,3.80
2018-08-30T11:17:55.055Z,3.40
2018-08-30T11:18:56.057Z,4.90
2018-08-30T11:19:55.000Z,4.90
2018-08-30T11:20:54.992Z,4.20
2018-08-30T11:21:59.564Z,7.00
2018-08-30T11:22:54.937Z,5.70
2018-08-30T11:23:56.012Z,6.30
2018-08-30T11:24:54.889Z,4.70
2018-08-30T11:25:55.001Z,5.60
2018-08-30T11:26:54.842Z,6.50
2018-08-30T11:27:54.890Z,4.50
2018-08-30T11:28:54.808Z,5.90
2018-08-30T11:29:56.822Z,7.50
2018-08-30T11:30:54.751Z,6.60
2018-08-30T11:31:54.778Z,8.00
2018-08-30T11:32:54.700Z,5.00
2018-08-30T11:33:54.685Z,6.40
2018-08-30T11:34:54.656Z,6.20
2018-08-30T11:35:54.614Z,6.70
2018-08-30T11:36:54.637Z,6.20
2018-08-30T11:37:54.616Z,5.60
2018-08-30T11:38:54.557Z,4.70
2018-08-30T11:39:54.527Z,9.20
2018-08-30T11:40:55.558Z,6.70
2018-08-30T11:41:54.489Z,5.50
2018-08-30T11:42:54.551Z,7.00
2018-08-30T11:43:54.430Z,7.70
2018-08-30T11:44:54.455Z,8.30
2018-08-30T11:45:54.374Z,6.60
2018-08-30T11:46:54.368Z,7.70
2018-08-30T11:47:54.358Z,7.30
2018-08-30T11:48:55.508Z,7.80
2018-08-30T11:49:54.289Z,7.20
2018-08-30T11:50:55.316Z,6.30
2018-08-30T11:51:54.293Z,5.50
2018-08-30T11:52:55.334Z,7.10
2018-08-30T11:53:54.198Z,8.70
2018-08-30T11:54:54.177Z,7.40
2018-08-30T11:55:54.143Z,7.10
2018-08-30T11:56:54.230Z,6.80
2018-08-30T11:57:54.102Z,5.80
2018-08-30T11:58:54.084Z,7.90
2018-08-30T11:59:54.048Z,6.40
2018-08-30T12:00:55.142Z,6.10
2018-08-30T12:01:54.009Z,4.00
2018-08-30T12:03:52.135Z,9.30
2018-08-30T12:04:52.065Z,6.10
2018-08-30T12:07:10.504Z,6.00
2018-08-30T12:08:10.488Z,4.70
2018-08-30T12:09:10.390Z,8.20
2018-08-30T12:10:10.438Z,7.80
2018-08-30T12:11:10.439Z,7.20
2018-08-30T12:12:10.410Z,6.90
2018-08-30T12:13:10.292Z,5.70
2018-08-30T12:14:11.344Z,5.30
2018-08-30T12:15:10.248Z,3.30
2018-08-30T12:16:10.243Z,4.10
2018-08-30T12:17:10.205Z,5.20
2018-08-30T12:18:10.250Z,5.30
2018-08-30T12:19:10.147Z,8.30
2018-08-30T12:20:10.191Z,6.40
2018-08-30T12:21:10.105Z,6.30
2018-08-30T12:22:10.168Z,6.60
2018-08-30T12:23:10.052Z,4.50
2018-08-30T12:24:11.100Z,3.90
2018-08-30T12:25:10.016Z,3.20
2018-08-30T12:26:10.087Z,7.40
2018-08-30T12:27:09.960Z,4.00
2018-08-30T12:28:10.014Z,4.10
2018-08-30T12:29:09.953Z,4.00
2018-08-30T12:30:09.935Z,7.00
2018-08-30T12:31:09.985Z,6.30
2018-08-30T12:32:11.885Z,4.10
2018-08-30T12:33:09.886Z,4.80
2018-08-30T12:34:09.928Z,6.20
2018-08-30T12:35:09.945Z,5.00
2018-08-30T12:36:11.835Z,5.00
2018-08-30T12:37:09.791Z,6.00
2018-08-30T12:38:11.875Z,5.90
2018-08-30T12:39:09.704Z,5.20
2018-08-30T12:42:02.835Z,17.70
2018-08-30T12:51:39.737Z,17.90
2018-08-30T12:52:37.418Z,7.40
2018-08-30T12:54:07.142Z,5.60
2018-08-30T12:54:37.373Z,3.70
2018-08-30T12:56:14.073Z,5.00
2018-08-30T12:56:37.226Z,4.80
2018-08-30T12:57:43.988Z,3.30
2018-08-30T12:58:37.284Z,5.00
2018-08-30T12:59:37.348Z,5.40
2018-08-30T13:00:37.234Z,5.10
2018-08-30T13:01:39.303Z,4.40
2018-08-30T13:02:37.222Z,4.60
2018-08-30T13:03:43.107Z,7.10
2018-08-30T13:04:37.376Z,5.10
2018-08-30T13:06:06.296Z,4.20
2018-08-30T13:06:37.052Z,7.40
2018-08-30T13:07:43.698Z,6.00
2018-08-30T13:08:37.241Z,4.50
2018-08-30T13:24:50.658Z,11.00
2018-08-30T13:25:50.710Z,6.80
2018-08-30T13:30:17.498Z,17.90
2018-08-30T13:31:17.350Z,7.00
2018-08-30T13:33:19.906Z,6.00
2018-08-30T13:34:18.081Z,5.80
2018-08-30T13:35:33.702Z,4.70
2018-08-30T13:36:18.026Z,5.70
2018-08-30T13:37:30.916Z,5.70
2018-08-30T13:38:18.195Z,10.70
2018-08-30T13:39:31.131Z,6.70
2018-08-30T13:40:18.169Z,4.60
2018-08-30T13:41:22.947Z,8.20
2018-08-30T13:42:18.039Z,7.60
2018-08-30T13:47:59.201Z,9.10
2018-08-30T13:48:57.822Z,7.10
2018-08-30T13:49:56.357Z,7.70
2018-08-30T13:50:56.697Z,6.70
2018-08-30T13:51:56.616Z,4.40
2018-08-30T13:53:11.482Z,5.20
2018-08-30T13:53:56.329Z,5.80
2018-08-30T13:55:01.058Z,4.00
2018-08-30T13:55:56.224Z,5.20
2018-08-30T13:56:56.555Z,6.60
2018-08-30T13:57:56.401Z,6.00
2018-08-30T13:59:02.573Z,6.00
2018-08-30T13:59:56.581Z,5.30
2018-08-30T14:00:56.644Z,5.10
2018-08-30T14:01:56.177Z,4.50
2018-08-30T14:02:56.191Z,7.10
2018-08-30T14:04:00.690Z,7.20